sensor_id;sensor_type;location;lat;lon;timestamp;P1;durP1;ratioP1;P2;durP2;ratioP2
12968;SDS011;6549;53.128;8.182;2024-02-15T00:02:58;24.88;;;14.02;;
12968;SDS011;6549;53.128;8.182;2024-02-15T00:05:58;24.63;;;13.25;;
12968;SDS011;6549;53.128;8.182;2024-02-15T00:08:59;25.92;;;14.23;;
12968;SDS011;6549;53.128;8.182;2024-02-15T00:11:59;24.50;;;15.07;;
12968;SDS011;6549;53.128;8.182;2024-02-15T00:14:59;27.17;;;15.60;;
12968;SDS011;6549;53.128;8.182;2024-02-15T00:18:00;28.30;;;15.75;;
12968;SDS011;6549;53.128;8.182;2024-02-15T00:21:03;25.73;;;14.68;;
12968;SDS011;6549;53.128;8.182;2024-02-15T00:24:04;26.08;;;15.60;;
12968;SDS011;6549;53.128;8.182;2024-02-15T00:27:04;28.85;;;15.10;;
12968;SDS011;6549;53.128;8.182;2024-02-15T00:30:05;28.38;;;15.88;;
12968;SDS011;6549;53.128;8.182;2024-02-15T00:33:07;25.27;;;14.80;;
12968;SDS011;6549;53.128;8.182;2024-02-15T00:36:07;29.17;;;15.45;;
12968;SDS011;6549;53.128;8.182;2024-02-15T00:39:08;27.65;;;14.55;;
12968;SDS011;6549;53.128;8.182;2024-02-15T00:42:08;29.08;;;15.23;;
12968;SDS011;6549;53.128;8.182;2024-02-15T00:45:09;22.77;;;13.02;;
12968;SDS011;6549;53.128;8.182;2024-02-15T00:48:09;23.88;;;13.23;;
12968;SDS011;6549;53.128;8.182;2024-02-15T00:51:10;24.08;;;14.15;;
12968;SDS011;6549;53.128;8.182;2024-02-15T00:54:10;26.73;;;14.18;;
12968;SDS011;6549;53.128;8.182;2024-02-15T00:57:11;25.70;;;13.25;;
12968;SDS011;6549;53.128;8.182;2024-02-15T01:00:11;24.75;;;13.10;;
12968;SDS011;6549;53.128;8.182;2024-02-15T01:03:13;26.42;;;13.60;;
12968;SDS011;6549;53.128;8.182;2024-02-15T01:06:13;27.52;;;13.10;;
12968;SDS011;6549;53.128;8.182;2024-02-15T01:09:14;27.73;;;14.20;;
12968;SDS011;6549;53.128;8.182;2024-02-15T01:12:14;24.52;;;13.40;;
12968;SDS011;6549;53.128;8.182;2024-02-15T01:15:14;26.52;;;13.95;;
12968;SDS011;6549;53.128;8.182;2024-02-15T01:18:18;27.83;;;13.82;;
12968;SDS011;6549;53.128;8.182;2024-02-15T01:21:18;26.70;;;13.60;;
12968;SDS011;6549;53.128;8.182;2024-02-15T01:24:19;26.75;;;14.30;;
12968;SDS011;6549;53.128;8.182;2024-02-15T01:27:19;26.05;;;13.90;;
12968;SDS011;6549;53.128;8.182;2024-02-15T01:30:19;26.90;;;14.75;;
12968;SDS011;6549;53.128;8.182;2024-02-15T01:33:20;26.60;;;13.85;;
12968;SDS011;6549;53.128;8.182;2024-02-15T01:36:20;24.45;;;13.32;;
12968;SDS011;6549;53.128;8.182;2024-02-15T01:39:20;26.95;;;13.95;;
12968;SDS011;6549;53.128;8.182;2024-02-15T01:42:21;24.00;;;13.82;;
12968;SDS011;6549;53.128;8.182;2024-02-15T01:45:21;27.75;;;15.30;;
12968;SDS011;6549;53.128;8.182;2024-02-15T01:48:22;29.88;;;15.38;;
12968;SDS011;6549;53.128;8.182;2024-02-15T01:51:22;27.90;;;14.40;;
12968;SDS011;6549;53.128;8.182;2024-02-15T01:54:25;26.85;;;14.55;;
12968;SDS011;6549;53.128;8.182;2024-02-15T01:57:27;31.07;;;14.27;;
12968;SDS011;6549;53.128;8.182;2024-02-15T02:00:27;29.60;;;15.00;;
12968;SDS011;6549;53.128;8.182;2024-02-15T02:03:28;28.08;;;13.95;;
12968;SDS011;6549;53.128;8.182;2024-02-15T02:06:29;27.30;;;14.25;;
12968;SDS011;6549;53.128;8.182;2024-02-15T02:09:30;27.27;;;14.48;;
12968;SDS011;6549;53.128;8.182;2024-02-15T02:12:31;27.05;;;15.30;;
12968;SDS011;6549;53.128;8.182;2024-02-15T02:15:32;29.02;;;14.88;;
12968;SDS011;6549;53.128;8.182;2024-02-15T02:18:32;29.35;;;15.48;;
12968;SDS011;6549;53.128;8.182;2024-02-15T02:21:33;27.50;;;14.70;;
12968;SDS011;6549;53.128;8.182;2024-02-15T02:24:52;30.92;;;14.30;;
12968;SDS011;6549;53.128;8.182;2024-02-15T02:28:03;27.77;;;14.82;;
12968;SDS011;6549;53.128;8.182;2024-02-15T02:31:03;28.27;;;14.57;;
12968;SDS011;6549;53.128;8.182;2024-02-15T02:34:04;32.22;;;15.13;;
12968;SDS011;6549;53.128;8.182;2024-02-15T02:37:07;26.30;;;14.18;;
12968;SDS011;6549;53.128;8.182;2024-02-15T02:40:08;28.40;;;15.52;;
12968;SDS011;6549;53.128;8.182;2024-02-15T02:43:09;27.45;;;14.65;;
12968;SDS011;6549;53.128;8.182;2024-02-15T02:46:10;26.85;;;14.65;;
12968;SDS011;6549;53.128;8.182;2024-02-15T02:49:11;25.08;;;14.77;;
12968;SDS011;6549;53.128;8.182;2024-02-15T02:52:11;28.08;;;15.10;;
12968;SDS011;6549;53.128;8.182;2024-02-15T02:55:12;28.88;;;13.70;;
12968;SDS011;6549;53.128;8.182;2024-02-15T02:58:12;27.75;;;14.07;;
12968;SDS011;6549;53.128;8.182;2024-02-15T03:01:13;26.73;;;14.85;;
12968;SDS011;6549;53.128;8.182;2024-02-15T03:04:16;26.80;;;14.07;;
12968;SDS011;6549;53.128;8.182;2024-02-15T03:07:17;23.65;;;13.43;;
12968;SDS011;6549;53.128;8.182;2024-02-15T03:10:18;28.05;;;14.70;;
12968;SDS011;6549;53.128;8.182;2024-02-15T03:13:18;30.70;;;14.68;;
12968;SDS011;6549;53.128;8.182;2024-02-15T03:16:23;27.97;;;14.90;;
12968;SDS011;6549;53.128;8.182;2024-02-15T03:19:24;25.08;;;13.95;;
12968;SDS011;6549;53.128;8.182;2024-02-15T03:22:27;23.90;;;12.67;;
12968;SDS011;6549;53.128;8.182;2024-02-15T03:25:29;25.38;;;14.05;;
12968;SDS011;6549;53.128;8.182;2024-02-15T03:28:30;23.98;;;12.80;;
12968;SDS011;6549;53.128;8.182;2024-02-15T03:31:30;27.05;;;13.55;;
12968;SDS011;6549;53.128;8.182;2024-02-15T03:34:34;21.33;;;11.65;;
12968;SDS011;6549;53.128;8.182;2024-02-15T03:37:35;26.08;;;11.77;;
12968;SDS011;6549;53.128;8.182;2024-02-15T03:40:38;20.60;;;10.75;;
12968;SDS011;6549;53.128;8.182;2024-02-15T03:43:40;22.35;;;11.40;;
12968;SDS011;6549;53.128;8.182;2024-02-15T03:46:40;21.67;;;10.60;;
12968;SDS011;6549;53.128;8.182;2024-02-15T03:49:41;21.92;;;10.32;;
12968;SDS011;6549;53.128;8.182;2024-02-15T03:52:42;22.63;;;10.48;;
12968;SDS011;6549;53.128;8.182;2024-02-15T03:55:43;21.90;;;10.95;;
12968;SDS011;6549;53.128;8.182;2024-02-15T03:58:44;21.73;;;10.73;;
12968;SDS011;6549;53.128;8.182;2024-02-15T04:01:44;21.33;;;11.02;;
12968;SDS011;6549;53.128;8.182;2024-02-15T04:04:46;21.50;;;10.35;;
12968;SDS011;6549;53.128;8.182;2024-02-15T04:07:49;20.92;;;10.63;;
12968;SDS011;6549;53.128;8.182;2024-02-15T04:10:49;23.10;;;10.95;;
12968;SDS011;6549;53.128;8.182;2024-02-15T04:13:50;22.52;;;10.90;;
12968;SDS011;6549;53.128;8.182;2024-02-15T04:16:51;19.75;;;10.35;;
12968;SDS011;6549;53.128;8.182;2024-02-15T04:19:51;20.88;;;10.23;;
12968;SDS011;6549;53.128;8.182;2024-02-15T04:22:54;22.00;;;10.73;;
12968;SDS011;6549;53.128;8.182;2024-02-15T04:25:54;21.63;;;9.88;;
12968;SDS011;6549;53.128;8.182;2024-02-15T04:28:55;19.13;;;10.15;;
12968;SDS011;6549;53.128;8.182;2024-02-15T04:31:55;26.50;;;12.05;;
12968;SDS011;6549;53.128;8.182;2024-02-15T04:34:56;21.83;;;11.00;;
12968;SDS011;6549;53.128;8.182;2024-02-15T04:37:56;25.25;;;11.35;;
12968;SDS011;6549;53.128;8.182;2024-02-15T04:40:57;26.70;;;11.40;;
12968;SDS011;6549;53.128;8.182;2024-02-15T04:44:00;22.85;;;11.48;;
12968;SDS011;6549;53.128;8.182;2024-02-15T04:47:03;22.50;;;11.25;;
12968;SDS011;6549;53.128;8.182;2024-02-15T04:50:06;23.95;;;11.00;;
12968;SDS011;6549;53.128;8.182;2024-02-15T04:53:09;22.05;;;11.13;;
12968;SDS011;6549;53.128;8.182;2024-02-15T04:56:09;23.88;;;11.50;;
12968;SDS011;6549;53.128;8.182;2024-02-15T04:59:13;23.05;;;11.45;;
12968;SDS011;6549;53.128;8.182;2024-02-15T05:02:17;25.63;;;11.05;;
12968;SDS011;6549;53.128;8.182;2024-02-15T05:05:18;23.90;;;11.20;;
12968;SDS011;6549;53.128;8.182;2024-02-15T05:08:19;24.38;;;11.85;;
12968;SDS011;6549;53.128;8.182;2024-02-15T05:11:20;27.02;;;12.55;;
12968;SDS011;6549;53.128;8.182;2024-02-15T05:14:22;20.70;;;11.68;;
12968;SDS011;6549;53.128;8.182;2024-02-15T05:17:23;26.45;;;12.77;;
12968;SDS011;6549;53.128;8.182;2024-02-15T05:20:23;27.75;;;13.27;;
12968;SDS011;6549;53.128;8.182;2024-02-15T05:23:25;27.63;;;14.48;;
12968;SDS011;6549;53.128;8.182;2024-02-15T05:26:25;29.65;;;14.13;;
12968;SDS011;6549;53.128;8.182;2024-02-15T05:29:26;28.33;;;14.48;;
12968;SDS011;6549;53.128;8.182;2024-02-15T05:32:28;27.65;;;13.93;;
12968;SDS011;6549;53.128;8.182;2024-02-15T05:35:28;29.25;;;14.23;;
12968;SDS011;6549;53.128;8.182;2024-02-15T05:38:29;27.85;;;14.32;;
12968;SDS011;6549;53.128;8.182;2024-02-15T05:41:29;28.13;;;13.90;;
12968;SDS011;6549;53.128;8.182;2024-02-15T05:44:30;29.15;;;14.00;;
12968;SDS011;6549;53.128;8.182;2024-02-15T05:47:30;29.63;;;13.63;;
12968;SDS011;6549;53.128;8.182;2024-02-15T05:50:30;26.05;;;14.13;;
12968;SDS011;6549;53.128;8.182;2024-02-15T05:53:31;34.80;;;15.65;;
12968;SDS011;6549;53.128;8.182;2024-02-15T05:56:37;25.90;;;14.50;;
12968;SDS011;6549;53.128;8.182;2024-02-15T05:59:38;30.38;;;15.23;;
12968;SDS011;6549;53.128;8.182;2024-02-15T06:02:40;30.10;;;14.48;;
12968;SDS011;6549;53.128;8.182;2024-02-15T06:05:40;29.48;;;15.05;;
12968;SDS011;6549;53.128;8.182;2024-02-15T06:08:41;29.88;;;16.00;;
12968;SDS011;6549;53.128;8.182;2024-02-15T06:11:41;32.35;;;15.65;;
12968;SDS011;6549;53.128;8.182;2024-02-15T06:17:44;34.23;;;16.17;;
12968;SDS011;6549;53.128;8.182;2024-02-15T06:20:45;29.80;;;16.15;;
12968;SDS011;6549;53.128;8.182;2024-02-15T06:23:49;37.90;;;16.63;;
12968;SDS011;6549;53.128;8.182;2024-02-15T06:26:50;36.07;;;18.20;;
12968;SDS011;6549;53.128;8.182;2024-02-15T06:29:53;36.00;;;18.27;;
12968;SDS011;6549;53.128;8.182;2024-02-15T06:33:12;40.30;;;18.33;;
12968;SDS011;6549;53.128;8.182;2024-02-15T06:36:31;37.85;;;18.83;;
12968;SDS011;6549;53.128;8.182;2024-02-15T06:39:50;40.97;;;20.00;;
12968;SDS011;6549;53.128;8.182;2024-02-15T06:42:51;36.72;;;19.40;;
12968;SDS011;6549;53.128;8.182;2024-02-15T06:45:52;36.47;;;18.42;;
12968;SDS011;6549;53.128;8.182;2024-02-15T06:48:52;36.53;;;19.27;;
12968;SDS011;6549;53.128;8.182;2024-02-15T06:51:53;39.17;;;20.17;;
12968;SDS011;6549;53.128;8.182;2024-02-15T06:54:53;40.80;;;19.23;;
12968;SDS011;6549;53.128;8.182;2024-02-15T06:57:54;36.85;;;19.67;;
12968;SDS011;6549;53.128;8.182;2024-02-15T07:00:55;38.35;;;20.08;;
12968;SDS011;6549;53.128;8.182;2024-02-15T07:03:55;36.40;;;19.83;;
12968;SDS011;6549;53.128;8.182;2024-02-15T07:06:56;36.63;;;19.77;;
12968;SDS011;6549;53.128;8.182;2024-02-15T07:09:57;35.25;;;20.08;;
12968;SDS011;6549;53.128;8.182;2024-02-15T07:12:57;35.85;;;19.30;;
12968;SDS011;6549;53.128;8.182;2024-02-15T07:15:58;39.45;;;21.02;;
12968;SDS011;6549;53.128;8.182;2024-02-15T07:18:58;38.30;;;20.20;;
12968;SDS011;6549;53.128;8.182;2024-02-15T07:21:59;38.42;;;19.98;;
12968;SDS011;6549;53.128;8.182;2024-02-15T07:25:00;36.95;;;20.63;;
12968;SDS011;6549;53.128;8.182;2024-02-15T07:28:00;34.90;;;19.23;;
12968;SDS011;6549;53.128;8.182;2024-02-15T07:31:00;35.92;;;20.20;;
12968;SDS011;6549;53.128;8.182;2024-02-15T07:34:02;37.95;;;19.25;;
12968;SDS011;6549;53.128;8.182;2024-02-15T07:37:06;36.35;;;19.88;;
12968;SDS011;6549;53.128;8.182;2024-02-15T07:40:07;32.70;;;19.25;;
12968;SDS011;6549;53.128;8.182;2024-02-15T07:43:08;39.60;;;19.50;;
12968;SDS011;6549;53.128;8.182;2024-02-15T07:46:13;40.05;;;19.67;;
12968;SDS011;6549;53.128;8.182;2024-02-15T07:49:14;38.75;;;20.20;;
12968;SDS011;6549;53.128;8.182;2024-02-15T07:52:14;39.65;;;19.83;;
12968;SDS011;6549;53.128;8.182;2024-02-15T07:55:15;36.20;;;17.83;;
12968;SDS011;6549;53.128;8.182;2024-02-15T07:58:15;34.58;;;18.52;;
12968;SDS011;6549;53.128;8.182;2024-02-15T08:01:18;33.47;;;19.20;;
12968;SDS011;6549;53.128;8.182;2024-02-15T08:04:22;32.42;;;18.27;;
12968;SDS011;6549;53.128;8.182;2024-02-15T08:07:24;41.13;;;21.08;;
12968;SDS011;6549;53.128;8.182;2024-02-15T08:10:25;33.83;;;18.83;;
12968;SDS011;6549;53.128;8.182;2024-02-15T08:13:27;32.58;;;18.92;;
12968;SDS011;6549;53.128;8.182;2024-02-15T08:16:29;34.45;;;18.67;;
12968;SDS011;6549;53.128;8.182;2024-02-15T08:19:29;35.22;;;20.08;;
12968;SDS011;6549;53.128;8.182;2024-02-15T08:22:29;34.10;;;19.45;;
12968;SDS011;6549;53.128;8.182;2024-02-15T08:25:30;34.08;;;19.45;;
12968;SDS011;6549;53.128;8.182;2024-02-15T08:28:31;33.20;;;18.92;;
12968;SDS011;6549;53.128;8.182;2024-02-15T08:31:32;34.17;;;19.27;;
12968;SDS011;6549;53.128;8.182;2024-02-15T08:34:32;33.30;;;19.05;;
12968;SDS011;6549;53.128;8.182;2024-02-15T08:37:33;32.38;;;19.45;;
12968;SDS011;6549;53.128;8.182;2024-02-15T08:40:35;29.97;;;17.93;;
12968;SDS011;6549;53.128;8.182;2024-02-15T08:43:35;30.23;;;17.67;;
12968;SDS011;6549;53.128;8.182;2024-02-15T08:46:38;36.20;;;19.30;;
12968;SDS011;6549;53.128;8.182;2024-02-15T08:49:38;31.58;;;19.30;;
12968;SDS011;6549;53.128;8.182;2024-02-15T08:52:40;30.77;;;18.35;;
12968;SDS011;6549;53.128;8.182;2024-02-15T08:55:41;31.48;;;17.58;;
12968;SDS011;6549;53.128;8.182;2024-02-15T08:58:41;30.85;;;17.67;;
12968;SDS011;6549;53.128;8.182;2024-02-15T09:01:42;28.65;;;17.65;;
12968;SDS011;6549;53.128;8.182;2024-02-15T09:04:43;30.33;;;18.48;;
12968;SDS011;6549;53.128;8.182;2024-02-15T09:07:44;31.92;;;17.65;;
12968;SDS011;6549;53.128;8.182;2024-02-15T09:10:48;31.15;;;17.73;;
12968;SDS011;6549;53.128;8.182;2024-02-15T09:13:49;35.40;;;18.23;;
12968;SDS011;6549;53.128;8.182;2024-02-15T09:16:51;30.87;;;17.97;;
12968;SDS011;6549;53.128;8.182;2024-02-15T09:19:52;29.80;;;18.48;;
12968;SDS011;6549;53.128;8.182;2024-02-15T09:22:53;28.50;;;18.10;;
12968;SDS011;6549;53.128;8.182;2024-02-15T09:25:54;32.83;;;18.38;;
12968;SDS011;6549;53.128;8.182;2024-02-15T09:28:54;34.25;;;18.58;;
12968;SDS011;6549;53.128;8.182;2024-02-15T09:31:55;33.63;;;18.90;;
12968;SDS011;6549;53.128;8.182;2024-02-15T09:34:56;35.23;;;19.43;;
12968;SDS011;6549;53.128;8.182;2024-02-15T09:37:57;39.30;;;21.58;;
12968;SDS011;6549;53.128;8.182;2024-02-15T09:40:57;34.08;;;20.90;;
12968;SDS011;6549;53.128;8.182;2024-02-15T09:43:58;37.85;;;22.27;;
12968;SDS011;6549;53.128;8.182;2024-02-15T09:50:05;36.83;;;21.83;;
12968;SDS011;6549;53.128;8.182;2024-02-15T09:53:07;42.00;;;22.92;;
12968;SDS011;6549;53.128;8.182;2024-02-15T09:56:08;43.15;;;24.05;;
12968;SDS011;6549;53.128;8.182;2024-02-15T09:59:11;42.75;;;22.40;;
12968;SDS011;6549;53.128;8.182;2024-02-15T10:02:11;37.42;;;22.17;;
12968;SDS011;6549;53.128;8.182;2024-02-15T10:05:13;39.55;;;24.17;;
12968;SDS011;6549;53.128;8.182;2024-02-15T10:08:14;39.63;;;22.85;;
12968;SDS011;6549;53.128;8.182;2024-02-15T10:11:14;40.50;;;23.58;;
12968;SDS011;6549;53.128;8.182;2024-02-15T10:14:15;36.60;;;22.35;;
12968;SDS011;6549;53.128;8.182;2024-02-15T10:17:17;36.92;;;22.05;;
12968;SDS011;6549;53.128;8.182;2024-02-15T10:20:19;37.60;;;23.77;;
12968;SDS011;6549;53.128;8.182;2024-02-15T10:23:19;35.92;;;21.75;;
12968;SDS011;6549;53.128;8.182;2024-02-15T10:26:19;39.33;;;22.27;;
12968;SDS011;6549;53.128;8.182;2024-02-15T10:29:23;38.25;;;21.73;;
12968;SDS011;6549;53.128;8.182;2024-02-15T10:32:28;38.00;;;22.27;;
12968;SDS011;6549;53.128;8.182;2024-02-15T10:35:34;40.60;;;23.23;;
12968;SDS011;6549;53.128;8.182;2024-02-15T10:38:35;40.22;;;23.25;;
12968;SDS011;6549;53.128;8.182;2024-02-15T10:41:38;41.40;;;23.38;;
12968;SDS011;6549;53.128;8.182;2024-02-15T10:44:40;39.42;;;23.50;;
12968;SDS011;6549;53.128;8.182;2024-02-15T10:47:46;39.08;;;22.25;;
12968;SDS011;6549;53.128;8.182;2024-02-15T10:50:47;46.33;;;24.67;;
12968;SDS011;6549;53.128;8.182;2024-02-15T10:53:54;38.28;;;23.42;;
12968;SDS011;6549;53.128;8.182;2024-02-15T10:57:00;40.40;;;23.00;;
12968;SDS011;6549;53.128;8.182;2024-02-15T11:00:05;34.63;;;21.48;;
12968;SDS011;6549;53.128;8.182;2024-02-15T11:03:11;35.45;;;21.85;;
12968;SDS011;6549;53.128;8.182;2024-02-15T11:06:20;34.97;;;21.20;;
12968;SDS011;6549;53.128;8.182;2024-02-15T11:09:24;37.75;;;21.10;;
12968;SDS011;6549;53.128;8.182;2024-02-15T11:12:28;33.30;;;20.48;;
12968;SDS011;6549;53.128;8.182;2024-02-15T11:18:43;31.52;;;19.88;;
12968;SDS011;6549;53.128;8.182;2024-02-15T11:21:55;27.75;;;19.15;;
12968;SDS011;6549;53.128;8.182;2024-02-15T11:24:56;31.30;;;19.17;;
12968;SDS011;6549;53.128;8.182;2024-02-15T11:27:57;28.63;;;18.10;;
12968;SDS011;6549;53.128;8.182;2024-02-15T11:30:57;25.65;;;16.88;;
12968;SDS011;6549;53.128;8.182;2024-02-15T11:33:58;25.13;;;16.85;;
12968;SDS011;6549;53.128;8.182;2024-02-15T11:36:58;24.00;;;16.58;;
12968;SDS011;6549;53.128;8.182;2024-02-15T11:39:59;24.20;;;16.55;;
12968;SDS011;6549;53.128;8.182;2024-02-15T11:43:00;25.05;;;16.88;;
12968;SDS011;6549;53.128;8.182;2024-02-15T11:46:00;23.63;;;16.35;;
12968;SDS011;6549;53.128;8.182;2024-02-15T11:52:09;21.70;;;16.48;;
12968;SDS011;6549;53.128;8.182;2024-02-15T11:55:11;22.80;;;16.38;;
12968;SDS011;6549;53.128;8.182;2024-02-15T11:58:13;22.77;;;15.83;;
12968;SDS011;6549;53.128;8.182;2024-02-15T12:01:28;22.55;;;15.45;;
12968;SDS011;6549;53.128;8.182;2024-02-15T12:04:48;20.10;;;14.82;;
12968;SDS011;6549;53.128;8.182;2024-02-15T12:08:07;18.48;;;15.35;;
12968;SDS011;6549;53.128;8.182;2024-02-15T12:11:26;17.63;;;14.40;;
12968;SDS011;6549;53.128;8.182;2024-02-15T12:14:45;20.02;;;14.20;;
12968;SDS011;6549;53.128;8.182;2024-02-15T12:18:13;20.58;;;14.75;;
12968;SDS011;6549;53.128;8.182;2024-02-15T12:21:32;18.55;;;13.90;;
12968;SDS011;6549;53.128;8.182;2024-02-15T12:24:33;17.58;;;13.50;;
12968;SDS011;6549;53.128;8.182;2024-02-15T12:27:35;22.85;;;13.45;;
12968;SDS011;6549;53.128;8.182;2024-02-15T12:30:35;17.42;;;13.13;;
12968;SDS011;6549;53.128;8.182;2024-02-15T12:33:40;16.45;;;13.32;;
12968;SDS011;6549;53.128;8.182;2024-02-15T12:36:40;16.30;;;13.63;;
12968;SDS011;6549;53.128;8.182;2024-02-15T12:39:42;17.50;;;13.20;;
12968;SDS011;6549;53.128;8.182;2024-02-15T12:42:44;16.48;;;12.90;;
12968;SDS011;6549;53.128;8.182;2024-02-15T12:45:45;14.63;;;12.73;;
12968;SDS011;6549;53.128;8.182;2024-02-15T12:48:45;17.60;;;12.68;;
12968;SDS011;6549;53.128;8.182;2024-02-15T12:51:49;15.40;;;12.15;;
12968;SDS011;6549;53.128;8.182;2024-02-15T12:55:05;14.18;;;12.40;;
12968;SDS011;6549;53.128;8.182;2024-02-15T12:58:14;15.15;;;12.73;;
12968;SDS011;6549;53.128;8.182;2024-02-15T13:01:15;13.05;;;11.43;;
12968;SDS011;6549;53.128;8.182;2024-02-15T13:04:25;14.05;;;11.30;;
12968;SDS011;6549;53.128;8.182;2024-02-15T13:07:26;12.80;;;10.52;;
12968;SDS011;6549;53.128;8.182;2024-02-15T13:10:27;12.63;;;10.10;;
12968;SDS011;6549;53.128;8.182;2024-02-15T13:13:28;13.20;;;9.88;;
12968;SDS011;6549;53.128;8.182;2024-02-15T13:16:28;10.13;;;9.10;;
12968;SDS011;6549;53.128;8.182;2024-02-15T13:19:31;10.85;;;8.85;;
12968;SDS011;6549;53.128;8.182;2024-02-15T13:22:31;10.65;;;8.90;;
12968;SDS011;6549;53.128;8.182;2024-02-15T13:25:33;10.57;;;9.13;;
12968;SDS011;6549;53.128;8.182;2024-02-15T13:28:33;9.25;;;8.23;;
12968;SDS011;6549;53.128;8.182;2024-02-15T13:31:33;10.38;;;8.77;;
12968;SDS011;6549;53.128;8.182;2024-02-15T13:34:34;9.50;;;8.05;;
12968;SDS011;6549;53.128;8.182;2024-02-15T13:37:35;9.80;;;7.25;;
12968;SDS011;6549;53.128;8.182;2024-02-15T13:40:35;11.45;;;8.20;;
12968;SDS011;6549;53.128;8.182;2024-02-15T13:43:35;9.45;;;8.02;;
12968;SDS011;6549;53.128;8.182;2024-02-15T13:46:36;12.45;;;8.57;;
12968;SDS011;6549;53.128;8.182;2024-02-15T13:49:36;9.70;;;7.95;;
12968;SDS011;6549;53.128;8.182;2024-02-15T13:52:36;10.77;;;8.25;;
12968;SDS011;6549;53.128;8.182;2024-02-15T13:55:37;9.82;;;7.70;;
12968;SDS011;6549;53.128;8.182;2024-02-15T13:58:38;11.00;;;7.93;;
12968;SDS011;6549;53.128;8.182;2024-02-15T14:01:38;13.25;;;8.38;;
12968;SDS011;6549;53.128;8.182;2024-02-15T14:04:45;10.43;;;8.52;;
12968;SDS011;6549;53.128;8.182;2024-02-15T14:07:48;10.98;;;7.75;;
12968;SDS011;6549;53.128;8.182;2024-02-15T14:10:53;9.85;;;8.70;;
12968;SDS011;6549;53.128;8.182;2024-02-15T14:13:54;14.77;;;8.50;;
12968;SDS011;6549;53.128;8.182;2024-02-15T14:16:58;13.57;;;9.27;;
12968;SDS011;6549;53.128;8.182;2024-02-15T14:19:58;12.10;;;9.32;;
12968;SDS011;6549;53.128;8.182;2024-02-15T14:22:58;9.70;;;8.73;;
12968;SDS011;6549;53.128;8.182;2024-02-15T14:26:04;11.43;;;10.00;;
12968;SDS011;6549;53.128;8.182;2024-02-15T14:29:07;12.90;;;9.65;;
12968;SDS011;6549;53.128;8.182;2024-02-15T14:32:07;11.65;;;9.68;;
12968;SDS011;6549;53.128;8.182;2024-02-15T14:35:26;12.70;;;9.63;;
12968;SDS011;6549;53.128;8.182;2024-02-15T14:38:29;11.55;;;9.68;;
12968;SDS011;6549;53.128;8.182;2024-02-15T14:41:29;9.63;;;8.68;;
12968;SDS011;6549;53.128;8.182;2024-02-15T14:44:30;10.13;;;9.02;;
12968;SDS011;6549;53.128;8.182;2024-02-15T14:47:31;10.70;;;8.95;;
12968;SDS011;6549;53.128;8.182;2024-02-15T14:50:31;14.85;;;9.57;;
12968;SDS011;6549;53.128;8.182;2024-02-15T14:53:31;11.80;;;9.10;;
12968;SDS011;6549;53.128;8.182;2024-02-15T14:56:33;12.48;;;9.30;;
12968;SDS011;6549;53.128;8.182;2024-02-15T14:59:33;15.77;;;9.35;;
12968;SDS011;6549;53.128;8.182;2024-02-15T15:02:34;10.60;;;9.50;;
12968;SDS011;6549;53.128;8.182;2024-02-15T15:05:35;11.80;;;9.00;;
12968;SDS011;6549;53.128;8.182;2024-02-15T15:08:53;11.32;;;9.40;;
12968;SDS011;6549;53.128;8.182;2024-02-15T15:12:12;10.93;;;9.82;;
12968;SDS011;6549;53.128;8.182;2024-02-15T15:15:32;13.05;;;10.52;;
12968;SDS011;6549;53.128;8.182;2024-02-15T15:18:33;14.93;;;11.30;;
12968;SDS011;6549;53.128;8.182;2024-02-15T15:21:33;14.80;;;10.45;;
12968;SDS011;6549;53.128;8.182;2024-02-15T15:24:34;13.23;;;10.90;;
12968;SDS011;6549;53.128;8.182;2024-02-15T15:27:34;16.40;;;11.30;;
12968;SDS011;6549;53.128;8.182;2024-02-15T15:30:36;19.83;;;14.60;;
12968;SDS011;6549;53.128;8.182;2024-02-15T15:33:37;18.27;;;13.00;;
12968;SDS011;6549;53.128;8.182;2024-02-15T15:36:38;19.73;;;15.23;;
12968;SDS011;6549;53.128;8.182;2024-02-15T15:39:38;19.45;;;12.98;;
12968;SDS011;6549;53.128;8.182;2024-02-15T15:42:39;19.10;;;13.75;;
12968;SDS011;6549;53.128;8.182;2024-02-15T15:45:40;15.68;;;12.63;;
12968;SDS011;6549;53.128;8.182;2024-02-15T15:48:40;15.55;;;10.38;;
12968;SDS011;6549;53.128;8.182;2024-02-15T15:51:41;15.30;;;11.63;;
12968;SDS011;6549;53.128;8.182;2024-02-15T15:54:41;14.52;;;10.25;;
12968;SDS011;6549;53.128;8.182;2024-02-15T15:57:42;12.15;;;10.50;;
12968;SDS011;6549;53.128;8.182;2024-02-15T16:00:43;13.88;;;9.77;;
12968;SDS011;6549;53.128;8.182;2024-02-15T16:03:44;17.23;;;9.82;;
12968;SDS011;6549;53.128;8.182;2024-02-15T16:06:48;15.68;;;11.15;;
12968;SDS011;6549;53.128;8.182;2024-02-15T16:09:48;15.63;;;10.27;;
12968;SDS011;6549;53.128;8.182;2024-02-15T16:12:48;12.15;;;9.38;;
12968;SDS011;6549;53.128;8.182;2024-02-15T16:15:53;16.40;;;9.15;;
12968;SDS011;6549;53.128;8.182;2024-02-15T16:18:54;15.32;;;10.10;;
12968;SDS011;6549;53.128;8.182;2024-02-15T16:21:55;13.23;;;9.98;;
12968;SDS011;6549;53.128;8.182;2024-02-15T16:24:56;12.60;;;8.82;;
12968;SDS011;6549;53.128;8.182;2024-02-15T16:27:56;13.38;;;8.93;;
12968;SDS011;6549;53.128;8.182;2024-02-15T16:30:59;16.35;;;9.52;;
12968;SDS011;6549;53.128;8.182;2024-02-15T16:33:59;14.55;;;9.07;;
12968;SDS011;6549;53.128;8.182;2024-02-15T16:36:59;18.42;;;9.90;;
12968;SDS011;6549;53.128;8.182;2024-02-15T16:40:00;13.90;;;9.60;;
12968;SDS011;6549;53.128;8.182;2024-02-15T16:43:00;11.93;;;8.82;;
12968;SDS011;6549;53.128;8.182;2024-02-15T16:46:01;13.50;;;9.48;;
12968;SDS011;6549;53.128;8.182;2024-02-15T16:49:03;13.38;;;9.13;;
12968;SDS011;6549;53.128;8.182;2024-02-15T16:52:05;13.73;;;9.60;;
12968;SDS011;6549;53.128;8.182;2024-02-15T16:55:06;17.65;;;9.68;;
12968;SDS011;6549;53.128;8.182;2024-02-15T16:58:09;13.50;;;9.52;;
12968;SDS011;6549;53.128;8.182;2024-02-15T17:01:10;13.90;;;9.50;;
12968;SDS011;6549;53.128;8.182;2024-02-15T17:04:10;16.48;;;10.43;;
12968;SDS011;6549;53.128;8.182;2024-02-15T17:07:15;13.60;;;9.30;;
12968;SDS011;6549;53.128;8.182;2024-02-15T17:10:16;14.75;;;10.82;;
12968;SDS011;6549;53.128;8.182;2024-02-15T17:13:16;15.38;;;9.90;;
12968;SDS011;6549;53.128;8.182;2024-02-15T17:16:17;15.73;;;10.07;;
12968;SDS011;6549;53.128;8.182;2024-02-15T17:19:17;15.55;;;10.70;;
12968;SDS011;6549;53.128;8.182;2024-02-15T17:22:18;13.70;;;9.52;;
12968;SDS011;6549;53.128;8.182;2024-02-15T17:25:18;12.07;;;9.25;;
12968;SDS011;6549;53.128;8.182;2024-02-15T17:28:20;17.75;;;10.80;;
12968;SDS011;6549;53.128;8.182;2024-02-15T17:31:20;20.02;;;12.70;;
12968;SDS011;6549;53.128;8.182;2024-02-15T17:34:20;13.93;;;10.05;;
12968;SDS011;6549;53.128;8.182;2024-02-15T17:37:21;15.45;;;9.60;;
12968;SDS011;6549;53.128;8.182;2024-02-15T17:40:21;13.20;;;9.23;;
12968;SDS011;6549;53.128;8.182;2024-02-15T17:43:21;14.80;;;8.85;;
12968;SDS011;6549;53.128;8.182;2024-02-15T17:46:22;13.98;;;8.57;;
12968;SDS011;6549;53.128;8.182;2024-02-15T17:49:22;13.30;;;8.77;;
12968;SDS011;6549;53.128;8.182;2024-02-15T17:52:22;12.93;;;8.70;;
12968;SDS011;6549;53.128;8.182;2024-02-15T17:55:23;10.65;;;7.78;;
12968;SDS011;6549;53.128;8.182;2024-02-15T17:58:23;13.18;;;8.50;;
12968;SDS011;6549;53.128;8.182;2024-02-15T18:01:25;13.95;;;8.68;;
12968;SDS011;6549;53.128;8.182;2024-02-15T18:04:26;17.52;;;8.15;;
12968;SDS011;6549;53.128;8.182;2024-02-15T18:07:26;11.70;;;7.32;;
12968;SDS011;6549;53.128;8.182;2024-02-15T18:10:29;14.93;;;7.97;;
12968;SDS011;6549;53.128;8.182;2024-02-15T18:13:29;11.80;;;6.72;;
12968;SDS011;6549;53.128;8.182;2024-02-15T18:16:29;13.07;;;6.80;;
12968;SDS011;6549;53.128;8.182;2024-02-15T18:19:30;12.10;;;6.72;;